WEATHER

Warnervale Skycam

North West View

North West View

South West View

South West View

Sydney Airport Forecast

  • YSSY TAF

    TAF YSSY 180504Z 1806/1912 17010KT 9999 -SHRA SCT020 BKN030 FM181400 21010KT 9999 -SHRA SCT015 BKN025 FM190200 17015KT 9999 -SHRA SCT020 BKN030 FM191000 20010KT 9999 -SHRA SCT020 BKN030 INTER 1806/1912 4000 SHRA BKN010 RMK T 22 21 21 20 Q 1010 1011 1011 1011

  • YSSY METAR

    TTF METAR YSSY 181000Z 26004KT 9999 FEW020 BKN045 20/18 Q1012 RMK RF00.0/000.2 INTER 1100/1300 5000 SHRA BKN010

All information provided on this page is for general information and should NOT be used for flight planning.